Time;durP1;ratioP1;P1;durP2;ratioP2;P2;SDS_P1;SDS_P2;PMS_P1;PMS_P2;Temp;Humidity;BMP_temperature;BMP_pressure;BME280_temperature;BME280_humidity;BME280_pressure;Samples;Min_cycle;Max_cycle;Signal;HPM_P1;HPM_P2
2023/04/24 00:01:43;;;;;;;3.30;1.30;;;10.90;99.90;;;;;;5121539;27;20763;-51
2023/04/24 00:04:10;;;;;;;2.50;1.30;;;10.90;99.90;;;;;;5171346;27;20129;-54
2023/04/24 00:06:37;;;;;;;2.88;1.63;;;10.80;99.90;;;;;;5168622;27;20401;-53
2023/04/24 00:09:05;;;;;;;2.80;1.50;;;10.80;99.90;;;;;;5170538;27;20034;-58
2023/04/24 00:11:31;;;;;;;3.17;1.52;;;10.80;99.90;;;;;;5172327;27;20038;-54
2023/04/24 00:13:57;;;;;;;3.60;1.70;;;10.80;99.90;;;;;;5140550;27;20043;-54
2023/04/24 00:16:23;;;;;;;2.90;1.90;;;10.80;99.90;;;;;;5166754;27;20038;-52
2023/04/24 00:18:49;;;;;;;3.00;2.15;;;10.70;99.90;;;;;;5169103;27;20470;-53
2023/04/24 00:21:17;;;;;;;3.75;2.10;;;10.70;99.90;;;;;;5170365;27;20034;-54
2023/04/24 00:23:43;;;;;;;2.78;2.00;;;10.80;99.90;;;;;;5168639;27;20109;-56
2023/04/24 00:26:09;;;;;;;3.60;2.67;;;10.70;99.90;;;;;;5168841;27;20038;-57
2023/04/24 00:28:35;;;;;;;3.67;2.40;;;10.80;99.90;;;;;;5139639;27;20087;-55
2023/04/24 00:31:01;;;;;;;4.97;2.80;;;10.70;99.90;;;;;;5165832;27;20034;-52
2023/04/24 00:33:27;;;;;;;3.78;2.78;;;10.70;99.90;;;;;;5169124;27;20191;-56
2023/04/24 00:35:52;;;;;;;4.45;3.03;;;10.70;99.90;;;;;;5168654;27;20114;-54
2023/04/24 00:38:18;;;;;;;4.50;3.40;;;10.70;99.90;;;;;;5167850;27;20046;-53
2023/04/24 00:40:44;;;;;;;4.28;3.30;;;10.70;99.90;;;;;;5167940;27;20034;-56
2023/04/24 00:43:10;;;;;;;4.80;3.72;;;10.70;99.90;;;;;;5171271;27;20053;-55
2023/04/24 00:45:36;;;;;;;4.65;3.60;;;10.70;99.90;;;;;;5169176;27;20030;-50
2023/04/24 00:48:02;;;;;;;4.82;3.80;;;10.80;99.90;;;;;;5133255;27;20050;-54
2023/04/24 00:50:29;;;;;;;6.03;4.20;;;10.70;99.90;;;;;;5167889;27;20030;-56
2023/04/24 00:52:55;;;;;;;6.60;4.75;;;10.70;99.90;;;;;;5167218;27;20042;-54
2023/04/24 00:55:20;;;;;;;5.88;4.78;;;10.80;99.90;;;;;;5170164;27;20417;-52
2023/04/24 00:57:48;;;;;;;6.60;5.25;;;10.80;99.90;;;;;;5168405;27;20037;-57
2023/04/24 01:00:15;;;;;;;5.57;4.97;;;10.80;99.90;;;;;;5170190;27;20102;-55
2023/04/24 01:02:45;;;;;;;7.13;5.15;;;10.80;99.90;;;;;;5168014;27;20030;-55
2023/04/24 01:05:15;;;;;;;6.68;5.32;;;10.80;99.90;;;;;;5169492;27;20030;-57
2023/04/24 01:07:45;;;;;;;7.05;4.82;;;10.80;99.90;;;;;;5169183;27;20034;-56
2023/04/24 01:10:12;;;;;;;6.30;5.25;;;10.80;99.90;;;;;;5129455;27;20035;-55
2023/04/24 01:12:38;;;;;;;6.22;3.70;;;10.80;99.90;;;;;;5167761;27;20415;-58
2023/04/24 01:15:06;;;;;;;4.78;3.72;;;10.80;99.90;;;;;;5168573;27;20034;-58
2023/04/24 01:17:32;;;;;;;4.93;4.05;;;10.80;99.90;;;;;;5131964;27;20117;-55
2023/04/24 01:19:59;;;;;;;6.63;4.85;;;10.80;99.90;;;;;;5135485;27;20058;-58
2023/04/24 01:22:26;;;;;;;5.95;4.90;;;10.80;99.90;;;;;;5141021;27;20110;-56
2023/04/24 01:24:52;;;;;;;5.57;4.97;;;11.00;99.90;;;;;;5169889;27;20030;-56
2023/04/24 01:27:18;;;;;;;5.90;5.25;;;10.70;99.90;;;;;;5169383;27;20034;-56
2023/04/24 01:29:44;;;;;;;7.68;5.10;;;10.70;99.90;;;;;;5169837;27;20381;-57
2023/04/24 01:32:10;;;;;;;5.50;4.80;;;10.60;99.90;;;;;;5166653;27;20053;-57
2023/04/24 01:34:37;;;;;;;5.90;5.30;;;10.70;99.90;;;;;;5127961;27;20039;-53
2023/04/24 01:37:03;;;;;;;5.78;4.03;;;10.60;99.90;;;;;;5167809;27;20086;-57
2023/04/24 01:39:28;;;;;;;5.93;4.25;;;10.60;99.90;;;;;;5129529;27;20138;-55
2023/04/24 01:41:55;;;;;;;5.85;4.05;;;10.50;99.90;;;;;;5168567;27;20092;-55
2023/04/24 01:44:21;;;;;;;4.80;4.18;;;10.50;99.90;;;;;;5167414;27;20389;-55
2023/04/24 01:46:47;;;;;;;5.43;4.30;;;10.50;99.90;;;;;;5168624;27;20049;-56
2023/04/24 01:49:13;;;;;;;5.20;4.00;;;10.40;99.90;;;;;;5171206;27;20477;-56
2023/04/24 01:51:39;;;;;;;5.70;3.17;;;10.50;99.90;;;;;;5167122;27;20069;-55
2023/04/24 01:54:05;;;;;;;5.72;3.65;;;10.40;99.90;;;;;;5133486;27;20469;-58
2023/04/24 01:56:35;;;;;;;5.82;3.28;;;10.40;99.90;;;;;;5167274;27;20495;-55
2023/04/24 01:59:03;;;;;;;7.32;3.20;;;10.30;99.90;;;;;;5170214;27;20079;-56
2023/04/24 02:01:36;;;;;;;4.05;3.00;;;10.30;99.90;;;;;;5167297;27;20034;-51
2023/04/24 02:04:02;;;;;;;4.20;3.13;;;10.30;99.90;;;;;;5168233;27;20038;-54
2023/04/24 02:06:28;;;;;;;6.32;3.35;;;10.30;99.90;;;;;;5168993;27;20198;-55
2023/04/24 02:08:54;;;;;;;4.70;3.33;;;10.30;99.90;;;;;;5167656;27;20117;-55
2023/04/24 02:11:19;;;;;;;5.35;3.10;;;10.30;99.90;;;;;;5165617;27;20038;-55
2023/04/24 02:13:45;;;;;;;4.13;3.08;;;10.20;99.90;;;;;;5170354;27;20080;-56
2023/04/24 02:16:11;;;;;;;4.10;3.10;;;10.20;99.90;;;;;;5166232;27;20034;-57
2023/04/24 02:18:37;;;;;;;4.78;2.60;;;10.20;99.90;;;;;;5142174;27;20043;-54
2023/04/24 02:21:02;;;;;;;4.43;2.75;;;10.30;99.90;;;;;;5161357;27;20466;-54
2023/04/24 02:23:28;;;;;;;4.38;2.40;;;10.20;99.90;;;;;;5170605;27;20038;-55
2023/04/24 02:25:55;;;;;;;3.75;2.60;;;10.20;99.90;;;;;;5172586;27;20026;-54
2023/04/24 02:28:21;;;;;;;4.38;2.80;;;10.20;99.90;;;;;;5171977;27;20038;-55
2023/04/24 02:30:46;;;;;;;5.20;2.40;;;10.20;99.90;;;;;;5173256;27;20118;-55
2023/04/24 02:33:12;;;;;;;3.25;1.98;;;10.20;99.90;;;;;;5171897;27;20153;-57
2023/04/24 02:35:38;;;;;;;3.50;2.00;;;10.10;99.90;;;;;;5170467;27;20031;-55
2023/04/24 02:38:03;;;;;;;4.03;2.40;;;10.20;99.90;;;;;;5168319;27;20038;-54
2023/04/24 02:40:30;;;;;;;4.60;2.30;;;10.10;99.90;;;;;;5141111;27;20050;-54
2023/04/24 02:42:55;;;;;;;3.30;2.28;;;10.10;99.90;;;;;;5173396;27;20043;-56
2023/04/24 02:45:21;;;;;;;3.40;2.10;;;10.10;99.90;;;;;;5172373;27;20052;-52
2023/04/24 02:47:47;;;;;;;4.25;2.10;;;10.10;99.90;;;;;;5174922;27;20046;-55
2023/04/24 02:50:12;;;;;;;3.35;2.25;;;10.10;99.90;;;;;;5168294;27;20046;-56
2023/04/24 02:52:38;;;;;;;4.88;2.53;;;10.10;99.90;;;;;;5174280;27;20038;-56
2023/04/24 02:55:05;;;;;;;3.50;2.28;;;10.10;99.90;;;;;;5138682;27;20043;-54
2023/04/24 02:57:31;;;;;;;3.90;2.15;;;10.10;99.90;;;;;;5170212;27;20030;-54
2023/04/24 02:59:56;;;;;;;3.63;1.90;;;10.10;99.90;;;;;;5168029;27;20102;-55
2023/04/24 03:02:22;;;;;;;3.00;2.00;;;10.10;99.90;;;;;;5173005;27;20045;-52
2023/04/24 03:04:48;;;;;;;3.33;2.05;;;10.10;99.90;;;;;;5169886;27;20030;-57
2023/04/24 03:07:14;;;;;;;2.65;1.55;;;10.20;99.90;;;;;;5173583;27;20069;-57
2023/04/24 03:09:40;;;;;;;3.25;2.10;;;10.20;99.90;;;;;;5168115;27;20042;-53
2023/04/24 03:12:06;;;;;;;3.20;1.80;;;10.20;99.90;;;;;;5172554;27;20030;-53
2023/04/24 03:14:32;;;;;;;3.35;1.90;;;10.20;99.90;;;;;;5171915;27;20038;-56
2023/04/24 03:16:58;;;;;;;3.65;2.00;;;10.30;99.90;;;;;;5134056;27;20110;-54
2023/04/24 03:19:23;;;;;;;4.57;1.70;;;10.30;99.90;;;;;;5167676;27;20553;-53
2023/04/24 03:21:49;;;;;;;2.50;1.60;;;10.30;99.90;;;;;;5173607;27;20034;-56
2023/04/24 03:24:15;;;;;;;2.55;1.10;;;10.30;99.90;;;;;;5168902;27;20034;-55
2023/04/24 03:26:41;;;;;;;1.67;0.95;;;10.20;99.90;;;;;;5172648;27;20031;-54
2023/04/24 03:29:07;;;;;;;3.33;0.90;;;10.20;99.90;;;;;;5168110;27;20073;-58
2023/04/24 03:31:32;;;;;;;1.98;0.90;;;10.10;99.90;;;;;;5172078;27;20118;-57
2023/04/24 03:33:58;;;;;;;1.38;0.80;;;10.20;99.90;;;;;;5170341;27;20042;-56
2023/04/24 03:36:24;;;;;;;1.80;0.80;;;10.10;99.90;;;;;;5137063;27;20046;-53
2023/04/24 03:38:49;;;;;;;1.23;0.73;;;10.00;99.90;;;;;;5137363;27;20050;-54
2023/04/24 03:41:15;;;;;;;1.83;0.70;;;9.90;99.90;;;;;;5169732;27;20366;-58
2023/04/24 03:43:41;;;;;;;1.20;0.68;;;9.90;99.90;;;;;;5139379;27;20047;-50
2023/04/24 03:46:09;;;;;;;1.88;0.40;;;9.80;99.90;;;;;;5173411;27;20117;-55
2023/04/24 03:48:35;;;;;;;1.50;0.40;;;9.80;99.90;;;;;;5172973;27;20042;-55
2023/04/24 03:51:01;;;;;;;1.05;0.40;;;9.70;99.90;;;;;;5141851;27;20112;-56
2023/04/24 03:53:27;;;;;;;1.35;0.70;;;9.70;99.90;;;;;;5171234;27;20702;-57
2023/04/24 03:55:53;;;;;;;1.55;0.60;;;9.70;99.90;;;;;;5172427;27;20069;-57
2023/04/24 03:58:19;;;;;;;2.47;0.80;;;9.70;99.90;;;;;;5168301;27;20091;-52
2023/04/24 04:00:46;;;;;;;1.90;0.90;;;9.60;99.90;;;;;;5172686;27;20418;-53
2023/04/24 04:03:13;;;;;;;1.48;0.85;;;9.70;99.90;;;;;;5169343;27;20045;-55
2023/04/24 04:05:39;;;;;;;3.42;1.10;;;9.60;99.90;;;;;;5132985;27;20046;-53
2023/04/24 04:08:05;;;;;;;4.07;1.15;;;9.60;99.90;;;;;;5169386;27;20031;-57
2023/04/24 04:10:30;;;;;;;1.77;1.02;;;9.60;99.90;;;;;;5171036;27;20436;-55
2023/04/24 04:12:56;;;;;;;2.00;1.02;;;9.50;99.90;;;;;;5170745;27;20041;-51
2023/04/24 04:15:22;;;;;;;2.08;1.35;;;9.60;99.90;;;;;;5170727;27;20034;-58
2023/04/24 04:17:47;;;;;;;2.47;1.13;;;9.50;99.90;;;;;;5168076;27;20073;-56
2023/04/24 04:20:13;;;;;;;4.70;1.50;;;9.50;99.90;;;;;;5164724;27;20034;-55
2023/04/24 04:22:39;;;;;;;2.63;1.50;;;9.60;99.90;;;;;;5140036;27;20095;-54
2023/04/24 04:25:05;;;;;;;4.45;1.85;;;9.60;99.90;;;;;;5172815;27;20030;-53
2023/04/24 04:27:34;;;;;;;3.85;2.00;;;9.60;99.90;;;;;;5170639;27;20389;-56
2023/04/24 04:30:04;;;;;;;5.65;2.80;;;9.70;99.90;;;;;;5169381;27;20042;-54
2023/04/24 04:32:33;;;;;;;7.72;3.83;;;9.70;99.90;;;;;;5132557;27;20042;-54
2023/04/24 04:35:02;;;;;;;9.43;5.53;;;9.70;99.90;;;;;;5153068;27;20564;-57
2023/04/24 04:37:29;;;;;;;9.40;5.95;;;9.80;99.90;;;;;;5169392;27;20090;-57
2023/04/24 04:39:55;;;;;;;9.60;5.38;;;9.90;99.90;;;;;;5169370;27;20117;-54
2023/04/24 04:42:21;;;;;;;7.30;4.68;;;10.00;99.90;;;;;;5166692;27;20137;-56
2023/04/24 04:44:46;;;;;;;6.85;4.25;;;10.00;99.90;;;;;;5168332;27;20149;-53
2023/04/24 04:47:12;;;;;;;8.50;5.32;;;10.10;99.90;;;;;;5169437;27;20521;-54
2023/04/24 04:49:38;;;;;;;9.05;6.20;;;10.10;99.90;;;;;;5166230;27;20061;-54
2023/04/24 04:52:04;;;;;;;12.88;7.13;;;10.30;99.90;;;;;;5168500;27;20041;-54
2023/04/24 04:54:31;;;;;;;10.20;5.72;;;10.30;99.90;;;;;;5167933;27;20030;-56
2023/04/24 04:56:57;;;;;;;8.90;5.63;;;10.20;99.90;;;;;;5169736;27;20473;-56
2023/04/24 04:59:22;;;;;;;8.90;5.78;;;10.10;99.90;;;;;;5171123;27;20049;-59
2023/04/24 05:01:48;;;;;;;11.77;7.00;;;10.10;99.90;;;;;;5170838;27;20754;-56
2023/04/24 05:04:14;;;;;;;14.05;8.25;;;10.30;99.90;;;;;;5166463;27;20073;-57
2023/04/24 05:06:40;;;;;;;15.45;9.18;;;10.20;99.90;;;;;;5130607;27;20490;-57
2023/04/24 05:09:07;;;;;;;14.13;9.20;;;10.20;99.90;;;;;;5167328;27;20388;-58
2023/04/24 05:11:32;;;;;;;20.35;9.75;;;10.30;99.90;;;;;;5169504;27;20387;-56
2023/04/24 05:13:58;;;;;;;15.20;9.45;;;10.30;99.90;;;;;;5166528;27;20253;-52
2023/04/24 05:16:24;;;;;;;16.15;9.27;;;10.10;99.90;;;;;;5159528;27;20400;-54
2023/04/24 05:18:50;;;;;;;16.15;9.32;;;10.20;99.90;;;;;;5166705;27;20069;-59
2023/04/24 05:21:15;;;;;;;15.25;8.70;;;10.20;99.90;;;;;;5169849;27;20753;-58
2023/04/24 05:23:41;;;;;;;17.95;9.02;;;10.20;99.90;;;;;;5165208;27;20038;-57
2023/04/24 05:26:07;;;;;;;16.55;8.98;;;10.00;99.90;;;;;;5134506;27;20073;-56
2023/04/24 05:28:33;;;;;;;14.98;8.77;;;10.00;99.90;;;;;;5169192;27;20066;-57
2023/04/24 05:30:59;;;;;;;19.98;8.93;;;10.10;99.90;;;;;;5167170;27;20433;-56
2023/04/24 05:33:25;;;;;;;16.13;8.40;;;10.10;99.90;;;;;;5169234;27;20034;-58
2023/04/24 05:35:51;;;;;;;17.52;8.70;;;10.00;99.90;;;;;;5168590;27;20385;-52
2023/04/24 05:38:19;;;;;;;15.23;8.98;;;10.10;99.90;;;;;;5166105;27;20560;-55
2023/04/24 05:40:48;;;;;;;15.57;8.50;;;10.00;99.90;;;;;;5168418;27;20041;-57
2023/04/24 05:43:13;;;;;;;19.00;9.80;;;10.00;99.90;;;;;;5169901;27;20133;-56
2023/04/24 05:45:39;;;;;;;18.15;9.23;;;10.00;99.90;;;;;;5168541;27;20609;-55
2023/04/24 05:48:05;;;;;;;17.15;9.13;;;10.00;99.90;;;;;;5167396;27;20041;-55
2023/04/24 05:50:31;;;;;;;13.07;8.68;;;10.00;99.90;;;;;;5168416;27;20503;-55
2023/04/24 05:53:01;;;;;;;16.45;9.15;;;10.10;99.90;;;;;;5159887;27;20035;-58
2023/04/24 05:55:27;;;;;;;15.55;9.15;;;10.00;99.90;;;;;;5156751;27;20030;-57
2023/04/24 05:57:53;;;;;;;20.13;8.88;;;9.90;99.90;;;;;;5170153;27;20061;-54
2023/04/24 06:00:19;;;;;;;12.90;7.15;;;10.00;99.90;;;;;;5173975;27;20038;-53
2023/04/24 06:02:46;;;;;;;16.30;8.00;;;10.10;99.90;;;;;;5173045;27;20137;-56
2023/04/24 06:05:12;;;;;;;15.73;8.02;;;10.10;99.90;;;;;;5172303;27;20042;-56
2023/04/24 06:07:38;;;;;;;17.80;8.02;;;10.10;99.90;;;;;;5172135;27;20035;-55
2023/04/24 06:10:04;;;;;;;15.40;7.85;;;10.00;99.90;;;;;;5172969;27;20122;-55
2023/04/24 06:12:31;;;;;;;18.30;9.15;;;10.10;99.90;;;;;;5170682;27;20132;-57
2023/04/24 06:14:56;;;;;;;15.18;8.50;;;10.00;99.90;;;;;;5133554;27;20043;-55
2023/04/24 06:17:22;;;;;;;16.23;7.63;;;9.90;99.90;;;;;;5173326;27;20049;-54
2023/04/24 06:19:48;;;;;;;16.00;7.20;;;9.90;99.90;;;;;;5173352;27;20118;-55
2023/04/24 06:22:13;;;;;;;14.77;7.50;;;10.00;99.90;;;;;;5171418;27;20077;-56
2023/04/24 06:24:42;;;;;;;14.02;7.47;;;9.80;99.90;;;;;;5172645;27;20459;-56
2023/04/24 06:27:08;;;;;;;12.52;6.68;;;9.80;99.90;;;;;;5133014;27;20470;-54
2023/04/24 06:29:33;;;;;;;14.68;7.38;;;9.90;99.90;;;;;;5167771;27;20040;-54
2023/04/24 06:31:59;;;;;;;13.10;7.82;;;10.00;99.90;;;;;;5171511;27;20069;-55
2023/04/24 06:34:25;;;;;;;17.98;8.27;;;10.00;99.90;;;;;;5171602;27;20037;-52
2023/04/24 06:36:51;;;;;;;18.27;9.25;;;9.90;99.90;;;;;;5156724;27;20046;-56
2023/04/24 06:39:16;;;;;;;14.38;8.55;;;9.90;99.90;;;;;;5171385;27;20509;-58
2023/04/24 06:41:42;;;;;;;16.75;8.48;;;9.80;99.90;;;;;;5171567;27;20117;-54
2023/04/24 06:44:08;;;;;;;13.30;7.90;;;9.90;99.90;;;;;;5157665;27;20055;-57
2023/04/24 06:46:34;;;;;;;16.70;8.55;;;9.90;99.90;;;;;;5172620;27;20132;-53
2023/04/24 06:49:00;;;;;;;17.55;8.82;;;9.80;99.90;;;;;;5170486;27;20385;-56
2023/04/24 06:51:27;;;;;;;15.45;8.07;;;9.70;99.90;;;;;;5171323;27;20069;-56
2023/04/24 06:53:58;;;;;;;19.75;8.80;;;9.80;99.90;;;;;;5165970;27;20042;-55
2023/04/24 06:56:25;;;;;;;15.13;7.65;;;9.90;99.90;;;;;;5160014;27;20038;-57
2023/04/24 06:58:51;;;;;;;16.10;7.47;;;9.70;99.90;;;;;;5155395;27;20085;-54
2023/04/24 07:01:16;;;;;;;13.75;7.68;;;9.80;99.90;;;;;;5153785;27;20477;-57
2023/04/24 07:03:42;;;;;;;15.65;7.93;;;9.70;99.90;;;;;;5153746;27;20035;-54
2023/04/24 07:06:10;;;;;;;17.75;8.38;;;9.70;99.90;;;;;;5134723;27;20058;-56
2023/04/24 07:08:36;;;;;;;15.93;7.13;;;9.80;99.90;;;;;;5159847;27;20037;-56
2023/04/24 07:11:02;;;;;;;13.93;7.07;;;9.70;99.90;;;;;;5155640;27;20047;-54
2023/04/24 07:13:28;;;;;;;13.90;7.15;;;9.70;99.90;;;;;;5157767;27;20029;-54
2023/04/24 07:15:56;;;;;;;11.70;6.22;;;9.70;99.90;;;;;;5157821;27;20026;-58
2023/04/24 07:18:22;;;;;;;9.60;5.75;;;9.80;99.90;;;;;;5157363;27;20039;-58
2023/04/24 07:20:49;;;;;;;12.50;6.15;;;9.70;99.90;;;;;;5154981;27;20039;-57
2023/04/24 07:23:15;;;;;;;12.00;6.75;;;9.80;99.90;;;;;;5155388;27;20035;-57
2023/04/24 07:25:41;;;;;;;17.83;7.53;;;9.60;99.90;;;;;;5149058;27;20482;-57
2023/04/24 07:28:07;;;;;;;15.70;6.03;;;9.80;99.90;;;;;;5151012;27;20109;-57
2023/04/24 07:30:33;;;;;;;9.85;5.93;;;9.70;99.90;;;;;;5154139;27;20044;-59
2023/04/24 07:32:59;;;;;;;13.80;7.20;;;9.80;99.90;;;;;;5160879;27;20038;-54
2023/04/24 07:35:26;;;;;;;12.98;6.20;;;9.70;99.90;;;;;;5152608;27;20039;-55
2023/04/24 07:37:53;;;;;;;13.75;7.38;;;9.70;99.90;;;;;;5154384;27;21986;-55
2023/04/24 07:40:20;;;;;;;12.68;6.70;;;9.80;99.90;;;;;;5153113;27;20037;-55
2023/04/24 07:42:48;;;;;;;13.98;6.88;;;9.70;99.90;;;;;;5133516;27;20066;-59
2023/04/24 07:45:14;;;;;;;15.30;7.10;;;9.90;99.90;;;;;;5156151;27;20060;-51
2023/04/24 07:47:43;;;;;;;18.85;8.25;;;9.70;99.90;;;;;;5155259;27;20076;-55
2023/04/24 07:50:09;;;;;;;18.83;9.02;;;9.80;99.90;;;;;;5148046;27;20073;-56
2023/04/24 07:52:35;;;;;;;27.38;13.32;;;9.70;99.90;;;;;;5149731;27;20031;-53
2023/04/24 07:55:02;;;;;;;24.27;13.75;;;9.80;99.90;;;;;;5161270;27;20094;-53
2023/04/24 07:57:28;;;;;;;33.55;15.82;;;9.70;99.90;;;;;;5172331;27;20038;-56
2023/04/24 07:59:54;;;;;;;39.05;18.38;;;9.60;99.90;;;;;;5171082;27;20077;-51
2023/04/24 08:02:25;;;;;;;32.80;16.42;;;9.60;99.90;;;;;;5169681;27;20706;-55
2023/04/24 08:04:54;;;;;;;32.38;17.00;;;9.40;99.90;;;;;;5146823;27;20041;-58
2023/04/24 08:07:20;;;;;;;33.03;17.15;;;9.50;99.90;;;;;;5171450;27;20038;-55
2023/04/24 08:09:46;;;;;;;42.55;18.90;;;9.40;99.90;;;;;;5172455;27;20090;-53
2023/04/24 08:12:12;;;;;;;38.67;20.40;;;9.30;99.90;;;;;;5144467;27;20066;-55
2023/04/24 08:14:37;;;;;;;41.80;21.23;;;9.50;99.90;;;;;;5172945;27;20481;-55
2023/04/24 08:17:03;;;;;;;39.38;20.40;;;9.40;99.90;;;;;;5121715;27;20046;-55
2023/04/24 08:19:29;;;;;;;42.80;21.17;;;9.30;99.90;;;;;;5172200;27;20046;-56
2023/04/24 08:21:54;;;;;;;36.92;18.85;;;9.30;99.90;;;;;;5140223;27;20036;-56
2023/04/24 08:24:20;;;;;;;42.20;26.15;;;9.30;99.90;;;;;;5173062;27;20043;-55
2023/04/24 08:26:46;;;;;;;39.17;19.10;;;9.20;99.90;;;;;;5172452;27;20038;-52
2023/04/24 08:29:12;;;;;;;32.50;18.17;;;9.20;99.90;;;;;;5172227;27;20035;-57
2023/04/24 08:31:37;;;;;;;29.40;18.30;;;9.10;99.90;;;;;;5171001;27;20034;-56
2023/04/24 08:34:03;;;;;;;38.42;19.42;;;9.20;99.90;;;;;;5171215;27;20417;-58
2023/04/24 08:36:29;;;;;;;30.08;15.07;;;9.10;99.90;;;;;;5170798;27;20030;-53
2023/04/24 08:38:55;;;;;;;26.90;15.02;;;9.10;99.90;;;;;;5172169;27;20042;-57
2023/04/24 08:41:24;;;;;;;30.85;15.63;;;9.00;99.90;;;;;;5168805;27;20485;-55
2023/04/24 08:43:51;;;;;;;25.92;14.43;;;8.90;99.90;;;;;;5169975;27;20056;-58
2023/04/24 08:46:18;;;;;;;25.10;13.63;;;8.90;99.90;;;;;;5171144;27;20409;-53
2023/04/24 08:48:44;;;;;;;26.10;14.88;;;8.90;99.90;;;;;;5170787;27;20030;-52
2023/04/24 08:51:11;;;;;;;26.95;14.32;;;9.00;99.90;;;;;;5170969;27;20077;-56
2023/04/24 08:53:37;;;;;;;31.65;14.27;;;8.90;99.90;;;;;;5172619;27;20030;-57
2023/04/24 08:56:03;;;;;;;26.80;13.77;;;8.90;99.90;;;;;;5154980;27;20509;-54
2023/04/24 08:58:31;;;;;;;28.73;14.98;;;9.10;99.90;;;;;;5171204;27;20034;-53
2023/04/24 09:00:58;;;;;;;28.05;14.18;;;9.10;99.90;;;;;;5171736;27;20377;-55
2023/04/24 09:03:25;;;;;;;22.30;13.25;;;9.10;99.90;;;;;;5171227;27;20063;-53
2023/04/24 09:05:54;;;;;;;30.13;14.55;;;9.10;99.90;;;;;;5170076;27;20034;-53
2023/04/24 09:08:23;;;;;;;27.35;12.93;;;9.10;99.90;;;;;;5170537;27;20045;-58
2023/04/24 09:10:49;;;;;;;35.83;13.63;;;9.30;99.90;;;;;;5169437;27;20061;-53
2023/04/24 09:13:15;;;;;;;24.05;10.82;;;9.40;99.90;;;;;;5171066;27;20073;-56
2023/04/24 09:15:41;;;;;;;24.67;12.38;;;9.30;99.90;;;;;;5172341;27;20085;-56
2023/04/24 09:18:07;;;;;;;18.88;9.30;;;9.60;99.90;;;;;;5169760;27;20038;-51
2023/04/24 09:20:35;;;;;;;18.10;7.50;;;9.50;99.90;;;;;;5171934;27;20030;-57
2023/04/24 09:23:01;;;;;;;15.35;7.85;;;9.70;99.90;;;;;;5170799;27;20038;-56
2023/04/24 09:25:35;;;;;;;16.48;7.00;;;9.60;99.90;;;;;;5163331;27;20082;-55
2023/04/24 09:28:06;;;;;;;10.75;5.70;;;9.70;99.90;;;;;;5164268;27;20034;-57
2023/04/24 09:30:32;;;;;;;13.38;6.13;;;9.60;99.90;;;;;;5167482;27;20042;-53
2023/04/24 09:33:14;;;;;;;12.50;5.85;;;9.70;99.90;;;;;;5170248;27;20598;-57
2023/04/24 09:35:51;;;;;;;12.73;6.05;;;9.60;99.90;;;;;;5137935;27;20053;-56
2023/04/24 09:38:17;;;;;;;12.40;5.40;;;9.60;99.90;;;;;;5134514;27;20031;-53
2023/04/24 09:40:43;;;;;;;15.95;6.95;;;9.60;99.90;;;;;;5159708;27;20053;-54
2023/04/24 09:43:11;;;;;;;13.55;7.28;;;9.70;99.90;;;;;;5175351;27;20050;-57
2023/04/24 09:45:39;;;;;;;13.30;6.18;;;9.70;99.90;;;;;;5173586;27;20074;-55
2023/04/24 09:48:08;;;;;;;15.10;5.68;;;9.70;99.90;;;;;;5171930;27;20045;-53
2023/04/24 09:50:34;;;;;;;16.42;6.63;;;9.70;99.90;;;;;;5131802;27;20039;-55
2023/04/24 09:53:05;;;;;;;19.15;5.75;;;9.70;99.90;;;;;;5164103;27;20042;-59
2023/04/24 09:55:31;;;;;;;13.25;3.60;;;9.60;99.90;;;;;;5174858;27;20065;-58
2023/04/24 09:58:01;;;;;;;10.02;4.20;;;9.40;99.90;;;;;;5158980;27;20030;-57
2023/04/24 10:00:27;;;;;;;12.02;3.20;;;9.30;99.90;;;;;;5171089;27;20042;-54
2023/04/24 10:03:01;;;;;;;12.23;3.42;;;9.20;99.90;;;;;;5175072;27;20034;-55
2023/04/24 10:05:32;;;;;;;13.37;4.20;;;9.10;99.90;;;;;;5167905;27;20481;-53
2023/04/24 10:08:18;;;;;;;9.52;3.33;;;9.10;99.90;;;;;;5158063;27;20278;-57
2023/04/24 10:10:45;;;;;;;10.68;3.65;;;9.00;99.90;;;;;;5171675;27;20050;-53
2023/04/24 10:13:14;;;;;;;11.10;3.70;;;9.10;99.90;;;;;;5173927;27;20042;-55
2023/04/24 10:15:41;;;;;;;11.85;3.50;;;9.10;99.90;;;;;;5169134;27;20362;-58
2023/04/24 10:18:08;;;;;;;8.35;3.20;;;9.10;99.90;;;;;;5174432;27;20376;-55
2023/04/24 10:20:36;;;;;;;11.82;3.83;;;9.20;99.90;;;;;;5173962;27;20113;-56
2023/04/24 10:23:02;;;;;;;15.05;4.22;;;9.20;99.90;;;;;;5172681;27;20393;-57
2023/04/24 10:25:34;;;;;;;11.52;4.20;;;9.20;99.90;;;;;;5173273;27;20174;-55
2023/04/24 10:28:01;;;;;;;11.93;3.75;;;9.30;99.90;;;;;;5170391;27;20034;-53
2023/04/24 10:30:29;;;;;;;13.75;3.63;;;9.50;99.90;;;;;;5169197;27;20542;-55
2023/04/24 10:32:55;;;;;;;16.10;4.13;;;9.40;99.90;;;;;;5157383;27;20042;-58
2023/04/24 10:35:25;;;;;;;15.25;3.40;;;9.50;99.90;;;;;;5163835;27;20275;-56
2023/04/24 10:37:57;;;;;;;15.98;3.58;;;9.50;99.90;;;;;;5166093;27;21630;-55
2023/04/24 10:40:35;;;;;;;14.93;3.20;;;9.60;99.90;;;;;;5136138;27;20050;-57
2023/04/24 10:43:07;;;;;;;14.80;3.53;;;9.70;99.90;;;;;;5163014;27;20409;-57
2023/04/24 10:45:34;;;;;;;14.38;3.38;;;9.80;99.90;;;;;;5165864;27;20042;-56
2023/04/24 10:48:05;;;;;;;11.50;2.63;;;9.80;99.90;;;;;;5161707;27;20037;-55
2023/04/24 10:50:52;;;;;;;12.52;2.97;;;9.90;99.90;;;;;;5155120;27;20035;-57
2023/04/24 10:53:23;;;;;;;9.55;2.85;;;10.00;99.90;;;;;;5160519;27;20042;-57
2023/04/24 10:56:04;;;;;;;8.88;2.42;;;10.10;99.90;;;;;;5152582;27;20034;-57
2023/04/24 10:58:47;;;;;;;10.13;2.90;;;10.10;99.90;;;;;;5150870;27;20034;-57
2023/04/24 11:01:25;;;;;;;8.57;2.07;;;10.10;99.90;;;;;;5147716;27;20066;-53
2023/04/24 11:03:55;;;;;;;8.98;1.90;;;10.10;99.90;;;;;;5153210;27;20039;-56
2023/04/24 11:06:32;;;;;;;8.82;1.85;;;10.10;99.90;;;;;;5126861;27;20054;-55
2023/04/24 11:09:07;;;;;;;8.00;1.95;;;10.00;99.90;;;;;;5155589;27;20039;-55
2023/04/24 11:11:34;;;;;;;6.88;2.20;;;10.00;99.90;;;;;;5161887;27;20043;-56
2023/04/24 11:14:01;;;;;;;9.48;2.25;;;10.00;99.90;;;;;;5157970;27;20039;-56
2023/04/24 11:16:28;;;;;;;8.50;1.70;;;9.90;99.90;;;;;;5160644;27;20034;-57
2023/04/24 11:19:13;;;;;;;10.50;2.40;;;10.00;99.90;;;;;;5128656;27;20176;-56
2023/04/24 11:21:48;;;;;;;10.68;2.30;;;10.00;99.90;;;;;;5158084;27;20030;-58
2023/04/24 11:24:26;;;;;;;12.30;2.55;;;10.10;99.90;;;;;;5154241;27;20035;-55
2023/04/24 11:27:07;;;;;;;15.40;2.60;;;10.00;99.90;;;;;;5161518;27;20087;-59
2023/04/24 11:29:44;;;;;;;11.35;2.80;;;10.00;99.90;;;;;;5158228;27;20117;-56
2023/04/24 11:32:28;;;;;;;15.65;2.30;;;9.90;99.90;;;;;;5157876;27;20381;-56
2023/04/24 11:35:01;;;;;;;10.10;2.08;;;9.80;99.90;;;;;;5159529;27;20435;-56
2023/04/24 11:37:42;;;;;;;6.32;1.90;;;9.70;99.90;;;;;;5154510;27;20113;-58
2023/04/24 11:40:10;;;;;;;6.40;1.92;;;9.60;99.90;;;;;;5162202;27;20046;-51
2023/04/24 11:42:41;;;;;;;9.18;1.83;;;9.60;99.90;;;;;;5157851;27;20031;-54
2023/04/24 11:45:10;;;;;;;7.70;1.83;;;9.60;99.90;;;;;;5156302;27;20070;-57
2023/04/24 11:47:36;;;;;;;4.03;1.20;;;9.60;99.90;;;;;;5161572;27;20034;-53
2023/04/24 11:50:03;;;;;;;5.68;1.27;;;9.60;99.90;;;;;;5155084;27;20269;-55
2023/04/24 11:52:30;;;;;;;5.63;1.35;;;9.60;99.90;;;;;;5125966;27;20038;-57
2023/04/24 11:54:56;;;;;;;4.80;1.20;;;9.50;99.90;;;;;;5134527;27;20038;-58
2023/04/24 11:57:33;;;;;;;8.88;1.92;;;9.60;99.90;;;;;;5168188;27;20113;-52
2023/04/24 11:59:59;;;;;;;9.35;1.50;;;9.60;99.90;;;;;;5127403;27;20051;-55
2023/04/24 12:02:26;;;;;;;7.65;1.60;;;9.60;99.90;;;;;;5167029;27;20034;-57
2023/04/24 12:04:53;;;;;;;4.60;1.40;;;9.60;99.90;;;;;;5172839;27;20042;-58
2023/04/24 12:07:19;;;;;;;3.80;1.10;;;9.70;99.90;;;;;;5173507;27;20066;-56
2023/04/24 12:09:47;;;;;;;6.60;1.50;;;9.70;99.90;;;;;;5172043;27;20046;-54
2023/04/24 12:12:17;;;;;;;6.30;1.23;;;9.80;99.90;;;;;;5149679;27;20392;-56
2023/04/24 12:14:50;;;;;;;7.05;1.77;;;9.80;99.90;;;;;;5171784;27;20109;-57
2023/04/24 12:17:25;;;;;;;3.60;1.10;;;9.80;99.90;;;;;;5172557;27;20035;-57
2023/04/24 12:19:50;;;;;;;4.10;0.93;;;9.80;99.90;;;;;;5132193;27;20042;-54
2023/04/24 12:22:16;;;;;;;8.55;1.40;;;9.90;99.90;;;;;;5166098;27;20381;-57
2023/04/24 12:25:00;;;;;;;5.50;1.30;;;9.90;99.90;;;;;;5162297;27;20050;-57
2023/04/24 12:27:29;;;;;;;8.03;1.17;;;9.80;99.90;;;;;;5153939;27;20481;-57
2023/04/24 12:29:59;;;;;;;4.50;1.13;;;9.70;99.90;;;;;;5154817;27;20376;-53
2023/04/24 12:32:25;;;;;;;9.77;1.45;;;9.60;99.90;;;;;;5152413;27;20042;-53
2023/04/24 12:34:52;;;;;;;8.80;1.40;;;9.50;99.90;;;;;;5158325;27;20508;-54
2023/04/24 12:37:18;;;;;;;9.13;1.52;;;9.60;99.90;;;;;;5157398;27;20042;-59
2023/04/24 12:40:01;;;;;;;6.15;1.27;;;9.50;99.90;;;;;;5154936;27;20458;-54
2023/04/24 12:42:30;;;;;;;6.22;1.40;;;9.50;99.90;;;;;;5167813;27;20039;-57
2023/04/24 12:45:06;;;;;;;7.80;1.35;;;9.50;99.90;;;;;;5170049;27;20046;-54
2023/04/24 12:47:33;;;;;;;6.95;1.30;;;9.50;99.90;;;;;;5167948;27;20030;-56